Flight Briefing for CPX991

Departure Arrival
Schiphol International Airport (EHAM)
Click to view FAA NOTAMS
Li├Ęge Airport (EBLG)
Click to view FAA NOTAMS
Departure Time Arrival Time
N/A N/A
Aircraft Distance
B747-400BCF 104nm
Departure METAR Arrival METAR
EHAM 250325Z 31003KT 280V360 9999 BKN016 11/09 Q1017 BECMG FEW016 EBLG 250320Z VRB01KT CAVOK 08/06 Q1017 NOSIG
Suggested Route





View recent IFR Routes data
Notes
EMPTY | NON-REVENUE REPOSITIONING LEG

Charts and Procedures

Charts for EHAM
No chart available
Charts for EBLG
No chart available

Windy.com Weather Map